createdAt,value
2017-09-16T00:00:00.891Z,10.20
2017-09-16T00:02:29.191Z,10.58
2017-09-16T00:05:07.347Z,9.76
2017-09-16T00:07:35.630Z,9.24
2017-09-16T00:10:04.835Z,8.84
2017-09-16T00:12:33.134Z,11.00
2017-09-16T00:15:03.372Z,9.20
2017-09-16T00:17:31.694Z,9.90
2017-09-16T00:20:10.009Z,9.20
2017-09-16T00:22:38.260Z,9.02
2017-09-16T00:25:07.446Z,8.82
2017-09-16T00:27:35.733Z,9.60
2017-09-16T00:30:14.083Z,9.08
2017-09-16T00:32:42.340Z,9.88
2017-09-16T00:35:11.607Z,9.64
2017-09-16T00:37:39.897Z,9.30
2017-09-16T00:40:08.142Z,9.56
2017-09-16T00:42:36.410Z,8.82
2017-09-16T00:45:04.712Z,10.28
2017-09-16T00:47:32.967Z,8.84
2017-09-16T00:50:01.219Z,8.94
2017-09-16T00:52:39.138Z,9.82
2017-09-16T00:55:07.469Z,9.80
2017-09-16T00:57:36.667Z,8.28
2017-09-16T01:00:04.923Z,9.50
2017-09-16T01:02:33.228Z,9.50
2017-09-16T01:05:01.496Z,9.92
2017-09-16T01:07:29.747Z,12.46
2017-09-16T01:10:01.910Z,10.52
2017-09-16T01:12:30.166Z,10.34
2017-09-16T01:15:03.119Z,10.28
2017-09-16T01:17:31.373Z,9.88
2017-09-16T01:20:06.022Z,9.34
2017-09-16T01:22:34.307Z,9.40
2017-09-16T01:25:02.567Z,8.52
2017-09-16T01:27:30.086Z,11.66
2017-09-16T01:30:21.425Z,9.64
2017-09-16T01:32:49.706Z,9.40
2017-09-16T01:35:19.023Z,8.72
2017-09-16T01:37:49.371Z,9.70
2017-09-16T01:40:18.634Z,8.60
2017-09-16T01:42:48.235Z,8.68
2017-09-16T01:45:16.477Z,9.26
2017-09-16T01:47:44.762Z,9.74
2017-09-16T01:50:13.019Z,10.22
2017-09-16T01:52:41.303Z,10.02
2017-09-16T01:55:09.555Z,9.82
2017-09-16T01:57:37.811Z,10.66
2017-09-16T02:00:06.119Z,11.38
2017-09-16T02:02:36.382Z,11.76
2017-09-16T02:05:04.667Z,9.38
2017-09-16T02:07:52.608Z,10.00
2017-09-16T02:10:20.863Z,11.46
2017-09-16T02:13:08.670Z,10.90
2017-09-16T02:15:36.923Z,9.68
2017-09-16T02:18:15.853Z,9.94
2017-09-16T02:20:44.106Z,10.36
2017-09-16T02:23:12.374Z,10.48
2017-09-16T02:25:42.641Z,10.82
2017-09-16T02:28:10.936Z,10.10
2017-09-16T02:30:39.188Z,11.02
2017-09-16T02:33:07.478Z,9.82
2017-09-16T02:35:37.666Z,11.24
2017-09-16T02:38:05.980Z,11.26
2017-09-16T02:40:37.658Z,11.78
2017-09-16T02:43:05.946Z,10.74
2017-09-16T02:45:51.266Z,11.08
2017-09-16T02:48:19.556Z,11.16
2017-09-16T02:50:50.954Z,9.74
2017-09-16T02:53:19.230Z,10.76
2017-09-16T02:58:48.426Z,10.10
2017-09-16T03:01:17.955Z,11.38
2017-09-16T03:03:58.814Z,10.34
2017-09-16T03:06:27.103Z,11.66
2017-09-16T03:08:55.355Z,10.86
2017-09-16T03:11:23.618Z,11.14
2017-09-16T03:14:09.242Z,11.12
2017-09-16T03:16:37.503Z,11.14
2017-09-16T03:19:08.887Z,11.20
2017-09-16T03:21:37.164Z,10.94
2017-09-16T03:24:07.430Z,10.64
2017-09-16T03:26:35.715Z,10.16
2017-09-16T03:29:18.506Z,10.34
2017-09-16T03:31:48.497Z,11.10
2017-09-16T03:34:26.819Z,9.26
2017-09-16T03:36:55.116Z,10.68
2017-09-16T03:39:24.359Z,11.16
2017-09-16T03:41:51.854Z,10.48
2017-09-16T03:44:29.171Z,11.42
2017-09-16T03:46:57.418Z,9.80
2017-09-16T03:49:36.008Z,10.56
2017-09-16T03:52:04.253Z,9.76
2017-09-16T03:54:32.505Z,8.96
2017-09-16T03:57:00.792Z,10.18
2017-09-16T03:59:38.912Z,10.04
2017-09-16T04:02:22.367Z,9.24
2017-09-16T04:04:50.622Z,8.62
2017-09-16T04:07:19.991Z,9.08
2017-09-16T04:09:49.346Z,10.00
2017-09-16T04:12:21.486Z,9.10
2017-09-16T04:14:49.771Z,9.30
2017-09-16T04:17:22.518Z,9.26
2017-09-16T04:19:50.774Z,10.04
2017-09-16T04:22:35.862Z,11.04
2017-09-16T04:25:04.143Z,10.22
2017-09-16T04:27:32.426Z,9.60
2017-09-16T04:30:00.720Z,10.12
2017-09-16T04:32:29.922Z,9.34
2017-09-16T04:34:58.162Z,9.20
2017-09-16T04:37:25.686Z,9.98
2017-09-16T04:39:53.939Z,10.22
2017-09-16T04:42:32.056Z,10.52
2017-09-16T04:45:00.301Z,10.00
2017-09-16T04:47:28.577Z,9.66
2017-09-16T04:49:56.835Z,10.14
2017-09-16T04:52:26.080Z,9.24
2017-09-16T04:54:54.378Z,10.00
2017-09-16T04:57:30.440Z,8.90
2017-09-16T04:59:58.730Z,10.12
2017-09-16T05:02:27.890Z,9.58
2017-09-16T05:04:56.129Z,9.00
2017-09-16T05:07:24.437Z,9.56
2017-09-16T05:09:52.686Z,9.22
2017-09-16T05:12:21.922Z,9.90
2017-09-16T05:14:49.442Z,9.28
2017-09-16T05:17:18.954Z,9.26
2017-09-16T05:19:49.264Z,9.62
2017-09-16T05:22:21.399Z,9.56
2017-09-16T05:24:49.679Z,11.66
2017-09-16T05:27:29.783Z,9.50
2017-09-16T05:29:58.031Z,8.84
2017-09-16T05:32:47.223Z,9.74
2017-09-16T05:35:15.901Z,9.40
2017-09-16T05:37:49.217Z,9.00
2017-09-16T05:40:18.690Z,8.56
2017-09-16T05:42:48.538Z,9.80
2017-09-16T05:45:19.494Z,8.16
2017-09-16T05:47:49.182Z,8.28
2017-09-16T05:50:19.482Z,10.38
2017-09-16T05:52:55.410Z,9.80
2017-09-16T05:55:23.699Z,9.66
2017-09-16T05:57:52.902Z,10.52
2017-09-16T06:00:21.158Z,11.88
2017-09-16T06:02:49.447Z,9.48
2017-09-16T06:05:18.771Z,9.92
2017-09-16T06:07:51.047Z,9.34
2017-09-16T06:10:19.327Z,8.98
2017-09-16T06:12:48.687Z,9.58
2017-09-16T06:15:18.907Z,10.78
2017-09-16T06:20:40.547Z,9.06
2017-09-16T06:23:08.794Z,10.40
2017-09-16T06:25:37.082Z,9.18
2017-09-16T06:28:05.346Z,10.80
2017-09-16T06:30:33.634Z,10.04
2017-09-16T06:33:21.613Z,10.30
2017-09-16T06:35:49.899Z,11.10
2017-09-16T06:38:18.164Z,10.34
2017-09-16T06:40:46.447Z,11.36
2017-09-16T06:43:14.698Z,12.60
2017-09-16T06:45:42.996Z,11.86
2017-09-16T06:48:12.210Z,10.64
2017-09-16T06:50:40.465Z,12.94
2017-09-16T06:53:08.765Z,10.96
2017-09-16T06:55:37.022Z,12.46
2017-09-16T06:58:07.312Z,12.40
2017-09-16T07:00:35.573Z,10.98
2017-09-16T07:03:03.830Z,11.16
2017-09-16T07:05:31.343Z,12.32
2017-09-16T07:07:59.645Z,11.74
2017-09-16T07:10:27.907Z,11.60
2017-09-16T07:12:56.194Z,12.64
2017-09-16T07:15:24.480Z,11.68
2017-09-16T07:17:52.766Z,11.32
2017-09-16T07:20:21.065Z,11.26
2017-09-16T07:22:49.332Z,13.16
2017-09-16T07:25:19.111Z,11.32
2017-09-16T07:27:48.270Z,12.72
2017-09-16T07:30:16.524Z,10.72
2017-09-16T07:32:44.059Z,14.40
2017-09-16T07:35:12.322Z,11.20
2017-09-16T07:37:40.577Z,13.20
2017-09-16T07:40:08.873Z,12.96
2017-09-16T07:42:37.165Z,12.88
2017-09-16T07:45:05.456Z,11.72
2017-09-16T07:47:33.702Z,13.10
2017-09-16T07:50:01.992Z,11.30
2017-09-16T07:52:30.255Z,12.42
2017-09-16T07:54:58.549Z,10.48
2017-09-16T07:57:26.834Z,12.72
2017-09-16T07:59:55.100Z,11.16
2017-09-16T08:02:22.666Z,11.32
2017-09-16T08:04:50.930Z,11.00
2017-09-16T08:07:19.198Z,11.78
2017-09-16T08:09:48.854Z,11.50
2017-09-16T08:12:18.104Z,10.10
2017-09-16T08:14:47.259Z,11.08
2017-09-16T08:17:16.049Z,9.30
2017-09-16T08:19:44.356Z,9.80
2017-09-16T08:22:27.876Z,8.94
2017-09-16T08:24:56.439Z,9.44
2017-09-16T08:27:38.917Z,9.20
2017-09-16T08:30:07.195Z,8.48
2017-09-16T08:32:56.542Z,8.12
2017-09-16T08:35:24.811Z,8.44
2017-09-16T08:37:57.406Z,7.90
2017-09-16T08:40:25.708Z,8.44
2017-09-16T08:42:53.963Z,6.96
2017-09-16T08:45:22.215Z,7.46
2017-09-16T08:48:01.552Z,6.92
2017-09-16T08:50:29.849Z,7.72
2017-09-16T08:52:58.103Z,8.28
2017-09-16T08:55:26.353Z,6.92
2017-09-16T08:58:02.646Z,7.78
2017-09-16T09:00:30.935Z,6.66
2017-09-16T09:03:01.195Z,6.36
2017-09-16T09:05:29.479Z,7.62
2017-09-16T09:07:58.743Z,6.82
2017-09-16T09:10:26.996Z,7.70
2017-09-16T09:12:59.993Z,6.62
2017-09-16T09:15:28.242Z,6.86
2017-09-16T09:18:00.079Z,6.78
2017-09-16T09:20:28.340Z,6.94
2017-09-16T09:23:02.954Z,6.62
2017-09-16T09:25:31.198Z,5.62
2017-09-16T09:28:13.584Z,5.88
2017-09-16T09:30:41.841Z,5.28
2017-09-16T09:33:11.025Z,5.84
2017-09-16T09:35:39.315Z,5.36
2017-09-16T09:38:13.881Z,5.94
2017-09-16T09:40:42.191Z,5.76
2017-09-16T09:43:27.433Z,5.14
2017-09-16T09:45:55.720Z,5.34
2017-09-16T09:48:34.038Z,5.52
2017-09-16T09:51:02.344Z,5.60
2017-09-16T09:53:32.550Z,4.94
2017-09-16T09:56:00.854Z,4.40
2017-09-16T09:58:48.132Z,5.54
2017-09-16T10:01:16.835Z,5.52
2017-09-16T10:03:46.454Z,5.10
2017-09-16T10:06:14.715Z,6.30
2017-09-16T10:08:50.186Z,5.18
2017-09-16T10:11:19.136Z,5.02
2017-09-16T10:14:08.395Z,4.62
2017-09-16T10:16:36.651Z,4.82
2017-09-16T10:19:21.768Z,6.86
2017-09-16T10:21:50.018Z,5.32
2017-09-16T10:24:19.292Z,4.52
2017-09-16T10:26:48.656Z,5.68
2017-09-16T10:29:18.514Z,4.78
2017-09-16T10:31:47.649Z,4.96
2017-09-16T10:34:26.592Z,4.48
2017-09-16T10:36:54.847Z,4.44
2017-09-16T10:39:23.114Z,4.76
2017-09-16T10:41:51.407Z,5.30
2017-09-16T10:44:26.759Z,3.90
2017-09-16T10:46:55.018Z,3.80
2017-09-16T10:49:24.273Z,4.36
2017-09-16T10:51:52.523Z,4.16
2017-09-16T10:54:39.894Z,4.32
2017-09-16T10:57:08.150Z,3.74
2017-09-16T10:59:36.431Z,3.58
2017-09-16T11:02:04.678Z,4.10
2017-09-16T11:04:34.191Z,3.48
2017-09-16T11:07:02.444Z,3.68
2017-09-16T11:09:40.974Z,3.38
2017-09-16T11:12:09.275Z,3.82
2017-09-16T11:14:43.349Z,3.06
2017-09-16T11:17:11.601Z,3.34
2017-09-16T11:19:39.855Z,3.64
2017-09-16T11:22:08.131Z,2.74
2017-09-16T11:24:37.421Z,3.04
2017-09-16T11:27:05.674Z,2.96
2017-09-16T11:29:41.066Z,2.62
2017-09-16T11:32:09.315Z,3.12
2017-09-16T11:34:39.550Z,2.92
2017-09-16T11:37:07.810Z,2.62
2017-09-16T11:39:39.621Z,3.12
2017-09-16T11:42:07.867Z,3.10
2017-09-16T11:44:39.711Z,3.02
2017-09-16T11:47:07.995Z,2.60
2017-09-16T11:49:39.678Z,2.66
2017-09-16T11:52:07.963Z,2.90
2017-09-16T11:54:36.243Z,2.90
2017-09-16T11:57:04.494Z,2.64
2017-09-16T11:59:42.495Z,2.78
2017-09-16T12:02:10.785Z,2.50
2017-09-16T12:04:51.258Z,2.80
2017-09-16T12:07:19.555Z,2.64
2017-09-16T12:12:43.274Z,2.80
2017-09-16T12:15:11.522Z,3.00
2017-09-16T12:17:43.551Z,2.20
2017-09-16T12:20:11.836Z,2.84
2017-09-16T12:23:05.492Z,2.90
2017-09-16T12:25:33.780Z,2.56
2017-09-16T12:28:10.299Z,2.42
2017-09-16T12:30:38.586Z,2.52
2017-09-16T12:33:08.065Z,2.70
2017-09-16T12:35:36.347Z,2.76
2017-09-16T12:38:14.462Z,3.00
2017-09-16T12:40:42.755Z,2.76
2017-09-16T12:43:18.435Z,2.68
2017-09-16T12:45:46.689Z,2.40
2017-09-16T12:48:14.975Z,2.44
2017-09-16T12:50:50.400Z,2.76
2017-09-16T12:53:19.260Z,2.66
2017-09-16T12:55:54.343Z,2.66
2017-09-16T12:58:22.601Z,2.62
2017-09-16T13:00:51.795Z,2.74
2017-09-16T13:03:19.310Z,2.78
2017-09-16T13:05:59.403Z,2.64
2017-09-16T13:08:27.693Z,2.58
2017-09-16T13:10:55.940Z,2.18
2017-09-16T13:13:24.183Z,2.10
2017-09-16T13:15:59.626Z,2.60
2017-09-16T13:18:27.875Z,2.36
2017-09-16T13:20:58.094Z,2.68
2017-09-16T13:23:26.359Z,2.50
2017-09-16T13:25:53.903Z,2.52
2017-09-16T13:28:22.173Z,2.74
2017-09-16T13:30:50.419Z,2.50
2017-09-16T13:33:19.245Z,3.52
2017-09-16T13:35:48.971Z,2.24
2017-09-16T13:38:18.425Z,2.64
2017-09-16T13:40:46.710Z,2.32
2017-09-16T13:43:14.963Z,2.00
2017-09-16T13:45:54.608Z,2.34
2017-09-16T13:48:22.867Z,2.50
2017-09-16T13:51:04.344Z,3.42
2017-09-16T13:53:32.591Z,2.00
2017-09-16T13:56:07.558Z,1.96
2017-09-16T13:58:35.806Z,2.10
2017-09-16T14:01:04.063Z,2.18
2017-09-16T14:03:32.359Z,2.28
2017-09-16T14:06:00.613Z,2.70
2017-09-16T14:08:28.879Z,2.44
2017-09-16T14:13:53.695Z,2.04
2017-09-16T14:16:21.975Z,2.66
2017-09-16T14:18:49.791Z,2.60
2017-09-16T14:21:18.971Z,2.24
2017-09-16T14:26:45.057Z,2.36
2017-09-16T14:29:13.346Z,2.00
2017-09-16T14:31:45.271Z,2.30
2017-09-16T14:34:13.583Z,2.26
2017-09-16T14:36:55.650Z,2.86
2017-09-16T14:39:23.942Z,2.70
2017-09-16T14:41:52.187Z,2.66
2017-09-16T14:44:20.493Z,2.96
2017-09-16T14:49:43.019Z,2.00
2017-09-16T14:52:11.284Z,2.00
2017-09-16T14:54:46.044Z,2.92
2017-09-16T14:57:14.318Z,2.20
2017-09-16T14:59:42.629Z,2.48
2017-09-16T15:02:10.943Z,2.20
2017-09-16T15:04:45.014Z,2.20
2017-09-16T15:07:13.299Z,2.62
2017-09-16T15:09:54.592Z,2.44
2017-09-16T15:12:22.071Z,2.26
2017-09-16T15:14:51.307Z,2.38
2017-09-16T15:17:19.554Z,2.54
2017-09-16T15:19:52.285Z,2.28
2017-09-16T15:22:20.586Z,2.36
2017-09-16T15:25:12.616Z,2.22
2017-09-16T15:27:40.880Z,2.36
2017-09-16T15:30:10.107Z,4.18
2017-09-16T15:32:38.398Z,2.30
2017-09-16T15:35:26.886Z,3.38
2017-09-16T15:37:55.171Z,2.28
2017-09-16T15:40:34.547Z,2.60
2017-09-16T15:43:21.755Z,3.00
2017-09-16T15:45:50.034Z,2.60
2017-09-16T15:48:20.231Z,2.64
2017-09-16T15:50:49.345Z,2.86
2017-09-16T15:53:31.719Z,2.86
2017-09-16T15:56:00.072Z,2.30
2017-09-16T15:58:31.540Z,2.80
2017-09-16T16:00:59.791Z,5.92
2017-09-16T16:03:32.699Z,7.78
2017-09-16T16:06:00.958Z,6.86
2017-09-16T16:08:37.554Z,7.16
2017-09-16T16:11:05.807Z,6.68
2017-09-16T16:13:34.115Z,7.10
2017-09-16T16:16:02.405Z,7.36
2017-09-16T16:18:48.262Z,6.58
2017-09-16T16:21:17.708Z,6.62
2017-09-16T16:23:48.146Z,7.26
2017-09-16T16:26:17.767Z,6.06
2017-09-16T16:28:56.626Z,4.58
2017-09-16T16:31:24.907Z,4.90
2017-09-16T16:33:54.091Z,4.08
2017-09-16T16:36:22.347Z,4.68
2017-09-16T16:38:52.286Z,4.60
2017-09-16T16:41:20.567Z,4.96
2017-09-16T16:43:49.528Z,4.58
2017-09-16T16:46:18.936Z,3.48
2017-09-16T16:48:48.128Z,3.56
2017-09-16T16:51:17.325Z,4.20
2017-09-16T16:53:44.807Z,3.82
2017-09-16T16:56:13.088Z,4.00
2017-09-16T16:58:41.343Z,3.98
2017-09-16T17:01:09.627Z,3.80
2017-09-16T17:03:37.924Z,3.60
2017-09-16T17:06:06.184Z,3.50
2017-09-16T17:08:34.435Z,3.58
2017-09-16T17:11:02.727Z,3.78
2017-09-16T17:13:30.984Z,4.34
2017-09-16T17:15:59.270Z,4.24
2017-09-16T17:18:27.527Z,3.98
2017-09-16T17:20:55.805Z,3.88
2017-09-16T17:23:24.055Z,4.10
2017-09-16T17:25:52.355Z,3.60
2017-09-16T17:28:20.607Z,3.80
2017-09-16T17:30:50.060Z,4.34
2017-09-16T17:33:37.069Z,4.02
2017-09-16T17:36:05.365Z,3.38
2017-09-16T17:38:33.622Z,4.08
2017-09-16T17:41:01.873Z,5.06
2017-09-16T17:43:32.094Z,4.82
2017-09-16T17:46:00.338Z,4.76
2017-09-16T17:48:32.127Z,4.76
2017-09-16T17:51:00.380Z,5.48
2017-09-16T17:53:41.034Z,4.96
2017-09-16T17:56:09.288Z,4.92
2017-09-16T17:58:41.418Z,5.66
2017-09-16T18:01:09.790Z,4.20
2017-09-16T18:03:38.071Z,4.74
2017-09-16T18:06:21.359Z,4.84
2017-09-16T18:08:49.614Z,6.26
2017-09-16T18:11:23.051Z,6.02
2017-09-16T18:13:51.331Z,5.40
2017-09-16T18:16:31.954Z,5.56
2017-09-16T18:19:00.242Z,6.06
2017-09-16T18:21:30.459Z,6.44
2017-09-16T18:23:58.735Z,5.36
2017-09-16T18:26:38.179Z,5.04
2017-09-16T18:29:06.464Z,6.02
2017-09-16T18:31:54.632Z,5.62
2017-09-16T18:34:22.920Z,6.22
2017-09-16T18:36:51.218Z,5.32
2017-09-16T18:39:19.472Z,6.20
2017-09-16T18:41:48.406Z,6.34
2017-09-16T18:44:17.659Z,6.22
2017-09-16T18:46:49.289Z,6.18
2017-09-16T18:49:18.959Z,6.80
2017-09-16T18:51:50.222Z,6.08
2017-09-16T18:54:18.703Z,5.36
2017-09-16T18:56:50.227Z,6.74
2017-09-16T18:59:19.326Z,6.50
2017-09-16T19:01:49.503Z,6.46
2017-09-16T19:04:18.983Z,5.70
2017-09-16T19:07:01.022Z,5.62
2017-09-16T19:09:31.246Z,5.88
2017-09-16T19:11:59.500Z,5.88
2017-09-16T19:14:27.789Z,5.62
2017-09-16T19:16:56.087Z,6.98
2017-09-16T19:19:34.075Z,5.98
2017-09-16T19:22:02.362Z,6.04
2017-09-16T19:24:31.586Z,5.40
2017-09-16T19:26:59.843Z,6.28
2017-09-16T19:29:33.570Z,6.22
2017-09-16T19:32:01.827Z,6.96
2017-09-16T19:37:23.195Z,5.40
2017-09-16T19:39:51.484Z,5.64
2017-09-16T19:42:23.166Z,6.18
2017-09-16T19:44:51.438Z,5.80
2017-09-16T19:47:19.720Z,5.32
2017-09-16T19:49:48.443Z,4.94
2017-09-16T19:52:28.123Z,5.16
2017-09-16T19:54:55.642Z,5.60
2017-09-16T19:57:34.066Z,5.38
2017-09-16T20:00:02.359Z,4.38
2017-09-16T20:02:46.191Z,4.50
2017-09-16T20:05:14.491Z,4.44
2017-09-16T20:07:42.742Z,4.22
2017-09-16T20:10:10.990Z,3.92
2017-09-16T20:12:39.279Z,3.98
2017-09-16T20:15:07.523Z,4.28
2017-09-16T20:17:36.771Z,4.38
2017-09-16T20:20:05.055Z,3.82
2017-09-16T20:22:34.266Z,4.06
2017-09-16T20:27:55.202Z,4.24
2017-09-16T20:30:23.464Z,3.90
2017-09-16T20:32:51.764Z,4.02
2017-09-16T20:35:20.022Z,3.78
2017-09-16T20:37:52.482Z,4.86
2017-09-16T20:40:20.764Z,4.10
2017-09-16T20:43:03.119Z,4.38
2017-09-16T20:45:31.362Z,4.02
2017-09-16T20:48:00.618Z,3.90
2017-09-16T20:50:28.903Z,4.30
2017-09-16T20:53:20.683Z,4.42
2017-09-16T20:55:50.083Z,4.22
2017-09-16T20:58:20.319Z,4.18
2017-09-16T21:00:49.296Z,4.36
2017-09-16T21:03:27.491Z,4.52
2017-09-16T21:05:55.800Z,4.70
2017-09-16T21:08:24.059Z,4.92
2017-09-16T21:11:08.969Z,4.92
2017-09-16T21:13:37.223Z,4.70
2017-09-16T21:16:05.527Z,4.82
2017-09-16T21:18:46.215Z,4.76
2017-09-16T21:21:14.519Z,4.76
2017-09-16T21:23:44.726Z,4.80
2017-09-16T21:26:34.818Z,5.98
2017-09-16T21:29:03.079Z,5.52
2017-09-16T21:31:35.703Z,5.14
2017-09-16T21:34:03.962Z,6.06
2017-09-16T21:36:37.054Z,5.56
2017-09-16T21:39:05.313Z,5.60
2017-09-16T21:41:51.531Z,5.98
2017-09-16T21:44:19.774Z,6.14
2017-09-16T21:46:49.062Z,5.94
2017-09-16T21:49:18.801Z,5.98
2017-09-16T21:51:48.287Z,5.68
2017-09-16T21:54:18.651Z,5.58
2017-09-16T21:56:48.795Z,6.12
2017-09-16T21:59:18.270Z,5.38
2017-09-16T22:01:48.724Z,5.32
2017-09-16T22:04:17.838Z,5.10
2017-09-16T22:06:48.664Z,5.80
2017-09-16T22:09:17.954Z,5.54
2017-09-16T22:11:48.763Z,6.20
2017-09-16T22:14:18.878Z,5.38
2017-09-16T22:16:50.606Z,5.92
2017-09-16T22:19:20.572Z,5.80
2017-09-16T22:21:49.953Z,5.32
2017-09-16T22:24:18.198Z,6.30
2017-09-16T22:26:50.078Z,5.92
2017-09-16T22:29:20.190Z,5.88
2017-09-16T22:31:58.779Z,5.68
2017-09-16T22:34:27.062Z,5.88
2017-09-16T22:36:55.323Z,5.82
2017-09-16T22:39:23.614Z,5.64
2017-09-16T22:42:02.011Z,5.00
2017-09-16T22:44:30.298Z,6.60
2017-09-16T22:46:57.788Z,7.52
2017-09-16T22:49:26.035Z,5.28
2017-09-16T22:52:04.166Z,6.68
2017-09-16T22:54:32.418Z,6.32
2017-09-16T22:57:01.687Z,5.80
2017-09-16T22:59:29.963Z,5.70
2017-09-16T23:02:10.437Z,5.84
2017-09-16T23:04:38.722Z,5.26
2017-09-16T23:07:08.926Z,5.94
2017-09-16T23:09:37.214Z,5.74
2017-09-16T23:12:16.361Z,5.54
2017-09-16T23:14:44.613Z,6.66
2017-09-16T23:17:12.867Z,5.10
2017-09-16T23:19:41.149Z,5.72
2017-09-16T23:22:10.438Z,6.10
2017-09-16T23:24:38.687Z,6.78
2017-09-16T23:27:13.042Z,5.80
2017-09-16T23:29:41.355Z,5.56
2017-09-16T23:32:10.582Z,5.92
2017-09-16T23:34:38.838Z,6.12
2017-09-16T23:37:23.949Z,5.52
2017-09-16T23:39:52.202Z,5.74
2017-09-16T23:42:30.214Z,6.06
2017-09-16T23:44:58.466Z,6.48
2017-09-16T23:47:36.650Z,6.14
2017-09-16T23:50:04.906Z,6.30
2017-09-16T23:52:34.207Z,6.04
2017-09-16T23:55:02.490Z,5.66
2017-09-16T23:57:30.738Z,6.40
2017-09-16T23:59:59.031Z,6.14
